sensor_id;sensor_type;location;lat;lon;timestamp;pressure;altitude;pressure_sealevel;temperature;humidity
17260;BME280;8746;49.230;9.220;2022-10-16T00:00:28;99797.06;;;14.50;100.00
17260;BME280;8746;49.230;9.220;2022-10-16T00:02:54;99793.47;;;14.51;100.00
17260;BME280;8746;49.230;9.220;2022-10-16T00:05:20;99783.53;;;14.55;100.00
17260;BME280;8746;49.230;9.220;2022-10-16T00:07:45;99784.56;;;14.52;100.00
17260;BME280;8746;49.230;9.220;2022-10-16T00:10:11;99784.66;;;14.51;100.00
17260;BME280;8746;49.230;9.220;2022-10-16T00:12:36;99776.69;;;14.51;100.00
17260;BME280;8746;49.230;9.220;2022-10-16T00:15:02;99779.81;;;14.43;100.00
17260;BME280;8746;49.230;9.220;2022-10-16T00:17:27;99778.09;;;14.42;100.00
17260;BME280;8746;49.230;9.220;2022-10-16T00:19:54;99775.91;;;14.34;100.00
17260;BME280;8746;49.230;9.220;2022-10-16T00:22:19;99782.81;;;14.37;100.00
17260;BME280;8746;49.230;9.220;2022-10-16T00:24:44;99789.94;;;14.36;100.00
17260;BME280;8746;49.230;9.220;2022-10-16T00:27:10;99779.38;;;14.35;100.00
17260;BME280;8746;49.230;9.220;2022-10-16T00:29:35;99787.19;;;14.38;100.00
17260;BME280;8746;49.230;9.220;2022-10-16T00:32:00;99789.38;;;14.46;100.00
17260;BME280;8746;49.230;9.220;2022-10-16T00:34:26;99794.41;;;14.50;100.00
17260;BME280;8746;49.230;9.220;2022-10-16T00:36:51;99794.69;;;14.46;100.00
17260;BME280;8746;49.230;9.220;2022-10-16T00:39:16;99796.31;;;14.48;100.00
17260;BME280;8746;49.230;9.220;2022-10-16T00:41:42;99799.91;;;14.47;100.00
17260;BME280;8746;49.230;9.220;2022-10-16T00:47:09;99800.88;;;14.46;100.00
17260;BME280;8746;49.230;9.220;2022-10-16T00:49:38;99805.13;;;14.49;100.00
17260;BME280;8746;49.230;9.220;2022-10-16T00:52:03;99798.00;;;14.49;100.00
17260;BME280;8746;49.230;9.220;2022-10-16T00:54:31;99802.78;;;14.58;100.00
17260;BME280;8746;49.230;9.220;2022-10-16T00:57:01;99799.47;;;14.55;100.00
17260;BME280;8746;49.230;9.220;2022-10-16T00:59:30;99788.94;;;14.53;100.00
17260;BME280;8746;49.230;9.220;2022-10-16T01:01:57;99790.56;;;14.56;100.00
17260;BME280;8746;49.230;9.220;2022-10-16T01:04:23;99788.66;;;14.58;100.00
17260;BME280;8746;49.230;9.220;2022-10-16T01:10:26;99800.31;;;14.55;100.00
17260;BME280;8746;49.230;9.220;2022-10-16T01:13:07;99814.53;;;14.54;100.00
17260;BME280;8746;49.230;9.220;2022-10-16T01:15:39;99812.16;;;14.64;100.00
17260;BME280;8746;49.230;9.220;2022-10-16T01:18:13;99800.88;;;14.61;100.00
17260;BME280;8746;49.230;9.220;2022-10-16T01:20:58;99800.88;;;14.61;100.00
17260;BME280;8746;49.230;9.220;2022-10-16T01:26:30;99776.81;;;14.64;100.00
17260;BME280;8746;49.230;9.220;2022-10-16T01:29:04;99782.84;;;14.67;100.00
17260;BME280;8746;49.230;9.220;2022-10-16T01:31:35;99790.09;;;14.64;100.00
17260;BME280;8746;49.230;9.220;2022-10-16T01:34:05;99792.69;;;14.65;100.00
17260;BME280;8746;49.230;9.220;2022-10-16T01:36:39;99791.63;;;14.68;100.00
17260;BME280;8746;49.230;9.220;2022-10-16T01:39:09;99802.25;;;14.68;100.00
17260;BME280;8746;49.230;9.220;2022-10-16T01:41:43;99803.19;;;14.67;100.00
17260;BME280;8746;49.230;9.220;2022-10-16T01:44:20;99804.06;;;14.67;100.00
17260;BME280;8746;49.230;9.220;2022-10-16T01:46:50;99800.00;;;14.76;100.00
17260;BME280;8746;49.230;9.220;2022-10-16T01:49:17;99803.81;;;14.72;100.00
17260;BME280;8746;49.230;9.220;2022-10-16T01:51:46;99811.25;;;14.65;100.00
17260;BME280;8746;49.230;9.220;2022-10-16T01:54:14;99807.66;;;14.66;100.00
17260;BME280;8746;49.230;9.220;2022-10-16T01:56:42;99818.34;;;14.65;100.00
17260;BME280;8746;49.230;9.220;2022-10-16T01:59:17;99806.81;;;14.66;100.00
17260;BME280;8746;49.230;9.220;2022-10-16T02:01:47;99806.63;;;14.69;100.00
17260;BME280;8746;49.230;9.220;2022-10-16T02:04:32;99809.97;;;14.72;100.00
17260;BME280;8746;49.230;9.220;2022-10-16T02:06:58;99810.84;;;14.73;100.00
17260;BME280;8746;49.230;9.220;2022-10-16T02:09:24;99812.72;;;14.71;100.00
17260;BME280;8746;49.230;9.220;2022-10-16T02:11:50;99810.84;;;14.73;100.00
17260;BME280;8746;49.230;9.220;2022-10-16T02:14:18;99815.16;;;14.74;100.00
17260;BME280;8746;49.230;9.220;2022-10-16T02:16:45;99807.88;;;14.78;100.00
17260;BME280;8746;49.230;9.220;2022-10-16T02:19:13;99814.13;;;14.77;100.00
17260;BME280;8746;49.230;9.220;2022-10-16T02:21:56;99800.72;;;14.94;100.00
17260;BME280;8746;49.230;9.220;2022-10-16T02:24:57;99811.03;;;14.84;100.00
17260;BME280;8746;49.230;9.220;2022-10-16T02:30:42;99812.91;;;14.82;100.00
17260;BME280;8746;49.230;9.220;2022-10-16T02:33:10;99808.66;;;14.80;100.00
17260;BME280;8746;49.230;9.220;2022-10-16T02:35:41;99809.50;;;14.80;100.00
17260;BME280;8746;49.230;9.220;2022-10-16T02:38:09;99813.69;;;14.84;100.00
17260;BME280;8746;49.230;9.220;2022-10-16T02:40:35;99812.75;;;14.85;100.00
17260;BME280;8746;49.230;9.220;2022-10-16T02:43:03;99813.59;;;14.86;100.00
17260;BME280;8746;49.230;9.220;2022-10-16T02:45:29;99817.13;;;14.86;100.00
17260;BME280;8746;49.230;9.220;2022-10-16T02:47:55;99811.97;;;14.83;100.00
17260;BME280;8746;49.230;9.220;2022-10-16T02:50:20;99810.16;;;14.84;100.00
17260;BME280;8746;49.230;9.220;2022-10-16T02:52:46;99806.66;;;14.83;100.00
17260;BME280;8746;49.230;9.220;2022-10-16T02:55:11;99810.16;;;14.84;100.00
17260;BME280;8746;49.230;9.220;2022-10-16T02:57:36;99813.78;;;14.83;100.00
17260;BME280;8746;49.230;9.220;2022-10-16T03:00:04;99812.91;;;14.82;100.00
17260;BME280;8746;49.230;9.220;2022-10-16T03:02:30;99816.50;;;14.81;100.00
17260;BME280;8746;49.230;9.220;2022-10-16T03:04:55;99806.56;;;14.85;100.00
17260;BME280;8746;49.230;9.220;2022-10-16T03:07:21;99814.63;;;14.83;100.00
17260;BME280;8746;49.230;9.220;2022-10-16T03:09:46;99828.69;;;14.85;100.00
17260;BME280;8746;49.230;9.220;2022-10-16T03:12:11;99817.84;;;14.88;100.00
17260;BME280;8746;49.230;9.220;2022-10-16T03:14:37;99812.53;;;14.88;100.00
17260;BME280;8746;49.230;9.220;2022-10-16T03:17:02;99807.72;;;14.95;100.00
17260;BME280;8746;49.230;9.220;2022-10-16T03:19:28;99807.22;;;14.88;100.00
17260;BME280;8746;49.230;9.220;2022-10-16T03:21:53;99814.25;;;14.89;100.00
17260;BME280;8746;49.230;9.220;2022-10-16T03:24:18;99817.75;;;14.90;100.00
17260;BME280;8746;49.230;9.220;2022-10-16T03:26:44;99830.41;;;14.86;100.00
17260;BME280;8746;49.230;9.220;2022-10-16T03:29:09;99839.09;;;14.88;100.00
17260;BME280;8746;49.230;9.220;2022-10-16T03:31:34;99835.50;;;14.89;100.00
17260;BME280;8746;49.230;9.220;2022-10-16T03:34:00;99832.94;;;14.88;100.00
17260;BME280;8746;49.230;9.220;2022-10-16T03:36:25;99839.09;;;14.88;100.00
17260;BME280;8746;49.230;9.220;2022-10-16T03:38:51;99839.09;;;14.88;100.00
17260;BME280;8746;49.230;9.220;2022-10-16T03:41:16;99832.06;;;14.87;100.00
17260;BME280;8746;49.230;9.220;2022-10-16T03:43:41;99835.72;;;14.86;100.00
17260;BME280;8746;49.230;9.220;2022-10-16T03:46:07;99827.13;;;14.81;100.00
17260;BME280;8746;49.230;9.220;2022-10-16T03:48:32;99827.50;;;14.75;100.00
17260;BME280;8746;49.230;9.220;2022-10-16T03:50:58;99835.09;;;14.81;100.00
17260;BME280;8746;49.230;9.220;2022-10-16T03:53:24;99835.31;;;14.78;100.00
17260;BME280;8746;49.230;9.220;2022-10-16T03:55:49;99838.91;;;14.77;100.00
17260;BME280;8746;49.230;9.220;2022-10-16T03:58:14;99843.28;;;14.78;100.00
17260;BME280;8746;49.230;9.220;2022-10-16T04:00:41;99841.56;;;14.77;100.00
17260;BME280;8746;49.230;9.220;2022-10-16T04:03:07;99839.84;;;14.76;100.00
17260;BME280;8746;49.230;9.220;2022-10-16T04:05:32;99833.59;;;14.77;100.00
17260;BME280;8746;49.230;9.220;2022-10-16T04:07:57;99834.53;;;14.76;100.00
17260;BME280;8746;49.230;9.220;2022-10-16T04:10:22;99840.88;;;14.73;100.00
17260;BME280;8746;49.230;9.220;2022-10-16T04:12:48;99837.38;;;14.73;100.00
17260;BME280;8746;49.230;9.220;2022-10-16T04:15:13;99836.34;;;14.76;100.00
17260;BME280;8746;49.230;9.220;2022-10-16T04:17:38;99833.00;;;14.72;100.00
17260;BME280;8746;49.230;9.220;2022-10-16T04:20:04;99838.50;;;14.69;100.00
17260;BME280;8746;49.230;9.220;2022-10-16T04:22:30;99848.94;;;14.72;100.00
17260;BME280;8746;49.230;9.220;2022-10-16T04:24:55;99849.69;;;14.74;100.00
17260;BME280;8746;49.230;9.220;2022-10-16T04:27:20;99848.84;;;14.73;100.00
17260;BME280;8746;49.230;9.220;2022-10-16T04:29:46;99859.56;;;14.72;100.00
17260;BME280;8746;49.230;9.220;2022-10-16T04:32:11;99858.53;;;14.74;100.00
17260;BME280;8746;49.230;9.220;2022-10-16T04:34:39;99859.22;;;14.78;100.00
17260;BME280;8746;49.230;9.220;2022-10-16T04:37:05;99861.72;;;14.65;100.00
17260;BME280;8746;49.230;9.220;2022-10-16T04:39:31;99859.38;;;14.59;100.00
17260;BME280;8746;49.230;9.220;2022-10-16T04:41:56;99861.09;;;14.60;100.00
17260;BME280;8746;49.230;9.220;2022-10-16T04:44:22;99868.81;;;14.65;100.00
17260;BME280;8746;49.230;9.220;2022-10-16T04:46:49;99861.09;;;14.60;100.00
17260;BME280;8746;49.230;9.220;2022-10-16T04:49:15;99866.56;;;14.57;100.00
17260;BME280;8746;49.230;9.220;2022-10-16T04:51:40;99875.50;;;14.56;100.00
17260;BME280;8746;49.230;9.220;2022-10-16T04:54:05;99873.13;;;14.51;100.00
17260;BME280;8746;49.230;9.220;2022-10-16T04:56:31;99874.63;;;14.55;100.00
17260;BME280;8746;49.230;9.220;2022-10-16T04:58:56;99874.53;;;14.57;100.00
17260;BME280;8746;49.230;9.220;2022-10-16T05:01:21;99879.94;;;14.55;100.00
17260;BME280;8746;49.230;9.220;2022-10-16T05:03:47;99879.84;;;14.57;100.00
17260;BME280;8746;49.230;9.220;2022-10-16T05:06:12;99886.81;;;14.59;100.00
17260;BME280;8746;49.230;9.220;2022-10-16T05:08:37;99880.53;;;14.61;100.00
17260;BME280;8746;49.230;9.220;2022-10-16T05:11:03;99883.19;;;14.61;100.00
17260;BME280;8746;49.230;9.220;2022-10-16T05:13:28;99881.41;;;14.61;100.00
17260;BME280;8746;49.230;9.220;2022-10-16T05:15:54;99882.06;;;14.65;100.00
17260;BME280;8746;49.230;9.220;2022-10-16T05:18:19;99875.75;;;14.67;100.00
17260;BME280;8746;49.230;9.220;2022-10-16T05:20:44;99889.16;;;14.64;100.00
17260;BME280;8746;49.230;9.220;2022-10-16T05:23:10;99878.56;;;14.64;100.00
17260;BME280;8746;49.230;9.220;2022-10-16T05:25:37;99894.44;;;14.66;100.00
17260;BME280;8746;49.230;9.220;2022-10-16T05:28:02;99875.84;;;14.66;100.00
17260;BME280;8746;49.230;9.220;2022-10-16T05:30:28;99881.22;;;14.64;100.00
17260;BME280;8746;49.230;9.220;2022-10-16T05:32:53;99888.31;;;14.64;100.00
17260;BME280;8746;49.230;9.220;2022-10-16T05:35:20;99877.72;;;14.64;100.00
17260;BME280;8746;49.230;9.220;2022-10-16T05:37:46;99882.94;;;14.65;100.00
17260;BME280;8746;49.230;9.220;2022-10-16T05:40:11;99873.22;;;14.66;100.00
17260;BME280;8746;49.230;9.220;2022-10-16T05:42:38;99867.72;;;14.53;100.00
17260;BME280;8746;49.230;9.220;2022-10-16T05:45:05;99879.53;;;14.47;100.00
17260;BME280;8746;49.230;9.220;2022-10-16T05:47:30;99884.00;;;14.47;100.00
17260;BME280;8746;49.230;9.220;2022-10-16T05:49:55;99887.50;;;14.47;100.00
17260;BME280;8746;49.230;9.220;2022-10-16T05:52:21;99892.78;;;14.47;100.00
17260;BME280;8746;49.230;9.220;2022-10-16T05:54:46;99899.66;;;14.51;100.00
17260;BME280;8746;49.230;9.220;2022-10-16T05:57:11;99898.03;;;14.49;100.00
17260;BME280;8746;49.230;9.220;2022-10-16T05:59:37;99904.19;;;14.49;100.00
17260;BME280;8746;49.230;9.220;2022-10-16T06:02:02;99901.53;;;14.49;100.00
17260;BME280;8746;49.230;9.220;2022-10-16T06:04:28;99908.22;;;14.40;100.00
17260;BME280;8746;49.230;9.220;2022-10-16T06:06:53;99913.34;;;14.43;100.00
17260;BME280;8746;49.230;9.220;2022-10-16T06:09:18;99911.56;;;14.44;100.00
17260;BME280;8746;49.230;9.220;2022-10-16T06:11:44;99921.31;;;14.43;100.00
17260;BME280;8746;49.230;9.220;2022-10-16T06:14:09;99924.75;;;14.46;100.00
17260;BME280;8746;49.230;9.220;2022-10-16T06:16:35;99916.69;;;14.47;100.00
17260;BME280;8746;49.230;9.220;2022-10-16T06:19:02;99912.84;;;14.37;100.00
17260;BME280;8746;49.230;9.220;2022-10-16T06:21:29;99925.00;;;14.41;100.00
17260;BME280;8746;49.230;9.220;2022-10-16T06:23:55;99922.88;;;14.48;100.00
17260;BME280;8746;49.230;9.220;2022-10-16T06:26:23;99930.84;;;14.48;100.00
17260;BME280;8746;49.230;9.220;2022-10-16T06:28:49;99927.13;;;14.50;100.00
17260;BME280;8746;49.230;9.220;2022-10-16T06:31:16;99916.09;;;14.42;100.00
17260;BME280;8746;49.230;9.220;2022-10-16T06:33:42;99910.56;;;14.31;100.00
17260;BME280;8746;49.230;9.220;2022-10-16T06:36:13;99919.69;;;14.41;100.00
17260;BME280;8746;49.230;9.220;2022-10-16T06:38:39;99922.78;;;14.49;100.00
17260;BME280;8746;49.230;9.220;2022-10-16T06:41:06;99926.00;;;14.54;100.00
17260;BME280;8746;49.230;9.220;2022-10-16T06:43:33;99929.09;;;14.63;100.00
17260;BME280;8746;49.230;9.220;2022-10-16T06:46:00;99937.50;;;14.71;100.00
17260;BME280;8746;49.230;9.220;2022-10-16T06:48:27;99946.84;;;14.78;100.00
17260;BME280;8746;49.230;9.220;2022-10-16T06:51:08;99953.78;;;14.81;100.00
17260;BME280;8746;49.230;9.220;2022-10-16T06:53:36;99959.41;;;14.90;100.00
17260;BME280;8746;49.230;9.220;2022-10-16T06:56:15;99948.69;;;14.92;100.00
17260;BME280;8746;49.230;9.220;2022-10-16T06:58:42;99958.72;;;14.87;100.00
17260;BME280;8746;49.230;9.220;2022-10-16T07:01:08;99961.03;;;14.93;100.00
17260;BME280;8746;49.230;9.220;2022-10-16T07:03:38;99967.69;;;15.00;100.00
17260;BME280;8746;49.230;9.220;2022-10-16T07:06:05;99971.03;;;15.04;100.00
17260;BME280;8746;49.230;9.220;2022-10-16T07:08:36;99988.69;;;15.05;100.00
17260;BME280;8746;49.230;9.220;2022-10-16T07:11:10;99985.94;;;15.06;100.00
17260;BME280;8746;49.230;9.220;2022-10-16T07:13:37;99984.88;;;15.09;100.00
17260;BME280;8746;49.230;9.220;2022-10-16T07:16:07;99985.09;;;15.20;100.00
17260;BME280;8746;49.230;9.220;2022-10-16T07:18:33;99980.63;;;15.06;100.00
17260;BME280;8746;49.230;9.220;2022-10-16T07:21:34;99986.38;;;14.99;100.00
17260;BME280;8746;49.230;9.220;2022-10-16T07:24:10;99978.06;;;15.05;100.00
17260;BME280;8746;49.230;9.220;2022-10-16T07:26:37;99982.84;;;14.98;100.00
17260;BME280;8746;49.230;9.220;2022-10-16T07:29:05;99987.31;;;14.98;100.00
17260;BME280;8746;49.230;9.220;2022-10-16T07:31:30;99990.66;;;15.01;100.00
17260;BME280;8746;49.230;9.220;2022-10-16T07:33:58;99986.41;;;15.13;100.00
17260;BME280;8746;49.230;9.220;2022-10-16T07:36:23;99986.66;;;15.25;100.00
17260;BME280;8746;49.230;9.220;2022-10-16T07:38:49;99989.78;;;15.31;100.00
17260;BME280;8746;49.230;9.220;2022-10-16T07:41:17;99997.22;;;15.41;100.00
17260;BME280;8746;49.230;9.220;2022-10-16T07:43:50;99992.00;;;15.39;100.00
17260;BME280;8746;49.230;9.220;2022-10-16T07:46:17;100001.78;;;15.38;100.00
17260;BME280;8746;49.230;9.220;2022-10-16T07:48:43;100003.63;;;15.52;100.00
17260;BME280;8746;49.230;9.220;2022-10-16T07:51:14;99999.19;;;15.67;100.00
17260;BME280;8746;49.230;9.220;2022-10-16T07:53:40;100005.91;;;15.73;100.00
17260;BME280;8746;49.230;9.220;2022-10-16T07:56:07;100014.88;;;15.86;100.00
17260;BME280;8746;49.230;9.220;2022-10-16T07:58:34;100005.22;;;15.85;100.00
17260;BME280;8746;49.230;9.220;2022-10-16T08:01:10;100008.06;;;15.97;100.00
17260;BME280;8746;49.230;9.220;2022-10-16T08:03:36;100008.72;;;16.00;100.00
17260;BME280;8746;49.230;9.220;2022-10-16T08:06:03;100018.91;;;16.23;100.00
17260;BME280;8746;49.230;9.220;2022-10-16T08:08:29;100014.88;;;16.44;100.00
17260;BME280;8746;49.230;9.220;2022-10-16T08:10:54;100023.06;;;16.41;100.00
17260;BME280;8746;49.230;9.220;2022-10-16T08:13:20;100028.19;;;16.44;100.00
17260;BME280;8746;49.230;9.220;2022-10-16T08:15:46;100036.91;;;16.46;100.00
17260;BME280;8746;49.230;9.220;2022-10-16T08:18:13;100044.44;;;16.54;100.00
17260;BME280;8746;49.230;9.220;2022-10-16T08:20:40;100040.50;;;16.74;100.00
17260;BME280;8746;49.230;9.220;2022-10-16T08:23:06;100040.34;;;16.90;100.00
17260;BME280;8746;49.230;9.220;2022-10-16T08:25:35;100046.44;;;17.07;99.66
17260;BME280;8746;49.230;9.220;2022-10-16T08:28:03;100040.09;;;17.35;97.20
17260;BME280;8746;49.230;9.220;2022-10-16T08:30:28;100044.50;;;17.36;96.90
17260;BME280;8746;49.230;9.220;2022-10-16T08:32:54;100044.97;;;17.28;95.17
17260;BME280;8746;49.230;9.220;2022-10-16T08:35:19;100043.78;;;17.60;95.13
17260;BME280;8746;49.230;9.220;2022-10-16T08:37:44;100045.03;;;17.54;94.92
17260;BME280;8746;49.230;9.220;2022-10-16T08:40:18;100047.94;;;17.64;95.81
17260;BME280;8746;49.230;9.220;2022-10-16T08:45:44;100044.22;;;17.79;93.33
17260;BME280;8746;49.230;9.220;2022-10-16T08:48:25;100052.34;;;17.91;91.69
17260;BME280;8746;49.230;9.220;2022-10-16T08:50:56;100047.00;;;17.91;92.10
17260;BME280;8746;49.230;9.220;2022-10-16T08:53:27;100042.13;;;17.98;91.23
17260;BME280;8746;49.230;9.220;2022-10-16T08:55:55;100039.69;;;18.07;91.71
17260;BME280;8746;49.230;9.220;2022-10-16T08:58:22;100031.31;;;18.38;88.82
17260;BME280;8746;49.230;9.220;2022-10-16T09:00:53;100035.59;;;18.27;87.40
17260;BME280;8746;49.230;9.220;2022-10-16T09:06:42;100053.28;;;18.54;87.46
17260;BME280;8746;49.230;9.220;2022-10-16T09:09:20;100051.78;;;18.50;82.04
17260;BME280;8746;49.230;9.220;2022-10-16T09:14:35;100056.09;;;18.77;80.55
17260;BME280;8746;49.230;9.220;2022-10-16T09:19:51;100064.06;;;19.27;79.76
17260;BME280;8746;49.230;9.220;2022-10-16T09:22:19;100061.31;;;19.40;79.14
17260;BME280;8746;49.230;9.220;2022-10-16T09:24:48;100068.81;;;19.70;78.00
17260;BME280;8746;49.230;9.220;2022-10-16T09:27:14;100076.84;;;19.70;77.91
17260;BME280;8746;49.230;9.220;2022-10-16T09:29:40;100076.81;;;20.06;74.38
17260;BME280;8746;49.230;9.220;2022-10-16T09:32:18;100090.97;;;19.73;76.91
17260;BME280;8746;49.230;9.220;2022-10-16T09:34:49;100089.47;;;19.57;77.20
17260;BME280;8746;49.230;9.220;2022-10-16T09:37:18;100095.09;;;19.65;76.23
17260;BME280;8746;49.230;9.220;2022-10-16T09:39:52;100101.22;;;19.43;74.07
17260;BME280;8746;49.230;9.220;2022-10-16T09:42:18;100106.63;;;19.66;76.55
17260;BME280;8746;49.230;9.220;2022-10-16T09:44:48;100115.38;;;19.32;76.56
17260;BME280;8746;49.230;9.220;2022-10-16T09:47:18;100116.06;;;19.47;76.89
17260;BME280;8746;49.230;9.220;2022-10-16T09:50:00;100109.28;;;19.54;76.13
17260;BME280;8746;49.230;9.220;2022-10-16T09:52:31;100105.41;;;19.59;76.02
17260;BME280;8746;49.230;9.220;2022-10-16T09:55:08;100122.94;;;19.38;75.60
17260;BME280;8746;49.230;9.220;2022-10-16T09:57:47;100115.72;;;19.52;75.76
17260;BME280;8746;49.230;9.220;2022-10-16T10:00:16;100124.28;;;19.93;74.39
17260;BME280;8746;49.230;9.220;2022-10-16T10:02:42;100118.00;;;20.28;73.13
17260;BME280;8746;49.230;9.220;2022-10-16T10:05:18;100114.84;;;20.11;73.44
17260;BME280;8746;49.230;9.220;2022-10-16T10:07:46;100119.69;;;20.06;73.90
17260;BME280;8746;49.230;9.220;2022-10-16T10:10:26;100116.66;;;20.11;72.54
17260;BME280;8746;49.230;9.220;2022-10-16T10:12:53;100122.06;;;19.62;75.37
17260;BME280;8746;49.230;9.220;2022-10-16T10:15:18;100130.97;;;19.87;73.77
17260;BME280;8746;49.230;9.220;2022-10-16T10:17:54;100118.44;;;19.99;73.03
17260;BME280;8746;49.230;9.220;2022-10-16T10:20:31;100124.97;;;20.30;73.43
17260;BME280;8746;49.230;9.220;2022-10-16T10:23:01;100134.97;;;20.51;72.74
17260;BME280;8746;49.230;9.220;2022-10-16T10:25:38;100135.81;;;21.52;70.00
17260;BME280;8746;49.230;9.220;2022-10-16T10:30:44;100133.78;;;21.77;67.05
17260;BME280;8746;49.230;9.220;2022-10-16T10:33:31;100134.94;;;21.52;68.06
17260;BME280;8746;49.230;9.220;2022-10-16T10:46:34;100140.81;;;20.45;70.65
17260;BME280;8746;49.230;9.220;2022-10-16T10:54:49;100133.53;;;21.80;67.37
17260;BME280;8746;49.230;9.220;2022-10-16T10:57:39;100122.94;;;22.52;65.52
17260;BME280;8746;49.230;9.220;2022-10-16T11:00:16;100128.44;;;22.50;64.59
17260;BME280;8746;49.230;9.220;2022-10-16T11:05:26;100122.78;;;22.84;62.60
17260;BME280;8746;49.230;9.220;2022-10-16T11:08:08;100130.56;;;22.25;64.64
17260;BME280;8746;49.230;9.220;2022-10-16T11:10:54;100123.47;;;22.46;63.80
17260;BME280;8746;49.230;9.220;2022-10-16T11:13:58;100123.41;;;22.36;65.84
17260;BME280;8746;49.230;9.220;2022-10-16T11:19:48;100110.59;;;22.18;65.01
17260;BME280;8746;49.230;9.220;2022-10-16T11:22:21;100114.38;;;21.73;66.77
17260;BME280;8746;49.230;9.220;2022-10-16T11:24:54;100115.03;;;21.66;67.03
17260;BME280;8746;49.230;9.220;2022-10-16T11:30:02;100103.44;;;21.65;67.23
17260;BME280;8746;49.230;9.220;2022-10-16T11:32:32;100101.53;;;21.77;66.94
17260;BME280;8746;49.230;9.220;2022-10-16T11:35:08;100106.47;;;21.93;66.66
17260;BME280;8746;49.230;9.220;2022-10-16T11:37:42;100121.25;;;21.66;66.40
17260;BME280;8746;49.230;9.220;2022-10-16T11:40:22;100125.44;;;21.48;66.24
17260;BME280;8746;49.230;9.220;2022-10-16T11:42:55;100118.97;;;21.50;65.72
17260;BME280;8746;49.230;9.220;2022-10-16T11:45:32;100109.72;;;21.43;66.97
17260;BME280;8746;49.230;9.220;2022-10-16T11:48:10;100106.25;;;21.64;66.06
17260;BME280;8746;49.230;9.220;2022-10-16T11:50:50;100109.22;;;21.82;66.00
17260;BME280;8746;49.230;9.220;2022-10-16T11:56:04;100109.84;;;21.74;64.85
17260;BME280;8746;49.230;9.220;2022-10-16T11:58:57;100121.16;;;21.56;66.45
17260;BME280;8746;49.230;9.220;2022-10-16T12:01:36;100128.28;;;21.35;65.59
17260;BME280;8746;49.230;9.220;2022-10-16T12:04:17;100123.09;;;21.22;66.78
17260;BME280;8746;49.230;9.220;2022-10-16T12:09:26;100114.47;;;20.95;69.06
17260;BME280;8746;49.230;9.220;2022-10-16T12:11:52;100122.53;;;20.95;70.18
17260;BME280;8746;49.230;9.220;2022-10-16T12:14:22;100124.34;;;21.06;69.55
17260;BME280;8746;49.230;9.220;2022-10-16T12:17:22;100121.72;;;21.27;68.76
17260;BME280;8746;49.230;9.220;2022-10-16T12:19:59;100120.53;;;21.20;67.95
17260;BME280;8746;49.230;9.220;2022-10-16T12:22:28;100119.22;;;21.58;67.79
17260;BME280;8746;49.230;9.220;2022-10-16T12:24:55;100122.25;;;21.86;67.00
17260;BME280;8746;49.230;9.220;2022-10-16T12:27:41;100121.47;;;21.96;64.63
17260;BME280;8746;49.230;9.220;2022-10-16T12:30:07;100124.16;;;21.74;65.65
17260;BME280;8746;49.230;9.220;2022-10-16T12:32:53;100128.13;;;21.48;66.02
17260;BME280;8746;49.230;9.220;2022-10-16T12:35:21;100122.59;;;21.60;66.18
17260;BME280;8746;49.230;9.220;2022-10-16T12:37:48;100124.97;;;21.75;65.15
17260;BME280;8746;49.230;9.220;2022-10-16T12:40:23;100115.94;;;21.97;65.54
17260;BME280;8746;49.230;9.220;2022-10-16T12:42:50;100109.22;;;21.82;66.43
17260;BME280;8746;49.230;9.220;2022-10-16T12:45:32;100120.63;;;21.95;65.16
17260;BME280;8746;49.230;9.220;2022-10-16T12:48:00;100120.59;;;21.74;65.70
17260;BME280;8746;49.230;9.220;2022-10-16T12:50:34;100122.72;;;21.91;65.33
17260;BME280;8746;49.230;9.220;2022-10-16T12:53:01;100113.03;;;21.79;66.85
17260;BME280;8746;49.230;9.220;2022-10-16T12:55:33;100115.22;;;21.74;66.52
17260;BME280;8746;49.230;9.220;2022-10-16T13:01:29;100117.28;;;21.82;65.66
17260;BME280;8746;49.230;9.220;2022-10-16T13:04:10;100119.16;;;21.91;65.75
17260;BME280;8746;49.230;9.220;2022-10-16T13:07:06;100118.97;;;21.83;66.75
17260;BME280;8746;49.230;9.220;2022-10-16T13:12:55;100115.78;;;21.56;64.08
17260;BME280;8746;49.230;9.220;2022-10-16T13:18:17;100124.31;;;21.61;65.81
17260;BME280;8746;49.230;9.220;2022-10-16T13:29:33;100123.72;;;21.58;66.59
17260;BME280;8746;49.230;9.220;2022-10-16T13:32:01;100130.94;;;21.46;67.84
17260;BME280;8746;49.230;9.220;2022-10-16T13:34:31;100129.75;;;21.71;66.14
17260;BME280;8746;49.230;9.220;2022-10-16T13:36:56;100125.09;;;21.41;64.90
17260;BME280;8746;49.230;9.220;2022-10-16T13:39:29;100124.97;;;21.42;66.72
17260;BME280;8746;49.230;9.220;2022-10-16T13:42:04;100124.91;;;21.21;65.46
17260;BME280;8746;49.230;9.220;2022-10-16T13:44:43;100124.53;;;21.26;66.40
17260;BME280;8746;49.230;9.220;2022-10-16T13:47:20;100119.06;;;21.16;67.54
17260;BME280;8746;49.230;9.220;2022-10-16T13:49:46;100117.88;;;21.09;67.78
17260;BME280;8746;49.230;9.220;2022-10-16T13:52:17;100124.34;;;21.06;67.94
17260;BME280;8746;49.230;9.220;2022-10-16T13:54:43;100130.56;;;20.95;69.04
17260;BME280;8746;49.230;9.220;2022-10-16T13:57:08;100135.72;;;20.87;69.86
17260;BME280;8746;49.230;9.220;2022-10-16T13:59:35;100137.56;;;20.75;71.82
17260;BME280;8746;49.230;9.220;2022-10-16T14:02:20;100136.91;;;20.94;69.03
17260;BME280;8746;49.230;9.220;2022-10-16T14:04:47;100134.75;;;20.77;69.94
17260;BME280;8746;49.230;9.220;2022-10-16T14:07:16;100135.19;;;20.71;73.08
17260;BME280;8746;49.230;9.220;2022-10-16T14:09:48;100135.69;;;20.64;74.25
17260;BME280;8746;49.230;9.220;2022-10-16T14:12:15;100137.03;;;20.59;75.20
17260;BME280;8746;49.230;9.220;2022-10-16T14:14:44;100140.19;;;20.53;76.84
17260;BME280;8746;49.230;9.220;2022-10-16T14:17:15;100142.25;;;20.49;78.35
17260;BME280;8746;49.230;9.220;2022-10-16T14:19:46;100149.47;;;20.48;77.06
17260;BME280;8746;49.230;9.220;2022-10-16T14:22:24;100145.44;;;20.54;76.44
17260;BME280;8746;49.230;9.220;2022-10-16T14:24:51;100142.16;;;20.62;75.19
17260;BME280;8746;49.230;9.220;2022-10-16T14:30:20;100141.06;;;20.76;72.47